Aviation Digital Data Service (ADDS)

Output produced by TAFs form (0024 UTC 23 October 2017)
found at http://www.aviationweather.gov/adds/tafs/
 
KFTY 222353Z 10007G16KT 10SM CLR 23/18 A3012 RMK AO2 SLP194 T02280183 10261 20228 55006
KFTY 222328Z 2300/2324 12008KT P6SM BKN040 
     FM230300 11008KT P6SM BKN015 
     FM230600 12008KT P6SM VCSH BKN008 
     FM231000 13008KT 5SM SHRA OVC010 
     PROB30 2310/2314 VRB10G20KT 3SM TSRA BKN010CB 
     FM231400 21012G20KT 3SM SHRA OVC010 
     FM231700 25009KT P6SM VCSH SCT040